GEC191 EDDF-EGLL
Flight info
| Callsign | GEC191 |
|---|---|
| Flight time | N/A |
| Altitude | 40000 |
| Route | OBOKA6N/25C OBOKA Z29 TORNU DCT ABNED L980 LOGAN |
| Aircraft | MD11/H-SDE1E2E3FGHIJ2J3J4J5M1RWXY/LB1D1 |
Departure
| Time | 2026-04-16 21:42 |
|---|---|
| Airport | Frankfurt Main Airport (EDDF) |
Arrival
| Time | N/A |
|---|---|
| Airport | London Heathrow Airport (EGLL) |
| Time | Latitude | Longitude | Altitude | Speed | Heading |
|---|---|---|---|---|---|
| 2026-04-16 21:04 | 50.03757 | 8.53223 | 359 ft | 0 kts | 339° |
| 2026-04-16 21:05 | 50.03745 | 8.53230 | 360 ft | 0 kts | 339° |
| 2026-04-16 21:32 | 50.03730 | 8.53239 | 350 ft | 4 kts | 339° |
| 2026-04-16 21:33 | 50.03706 | 8.53253 | 373 ft | 3 kts | 341° |
| 2026-04-16 21:33 | 50.03683 | 8.53269 | 359 ft | 4 kts | 316° |
| 2026-04-16 21:33 | 50.03670 | 8.53296 | 359 ft | 4 kts | 277° |
| 2026-04-16 21:33 | 50.03671 | 8.53335 | 359 ft | 4 kts | 251° |
| 2026-04-16 21:34 | 50.03681 | 8.53373 | 359 ft | 4 kts | 248° |
| 2026-04-16 21:34 | 50.03684 | 8.53386 | 359 ft | 0 kts | 249° |
| 2026-04-16 21:38 | 50.03679 | 8.53366 | 359 ft | 6 kts | 249° |
| 2026-04-16 21:38 | 50.03668 | 8.53318 | 359 ft | 7 kts | 249° |
| 2026-04-16 21:38 | 50.03651 | 8.53249 | 352 ft | 13 kts | 249° |
| 2026-04-16 21:38 | 50.03619 | 8.53117 | 356 ft | 11 kts | 248° |
| 2026-04-16 21:39 | 50.03575 | 8.53052 | 356 ft | 9 kts | 194° |
| 2026-04-16 21:39 | 50.03513 | 8.53012 | 354 ft | 10 kts | 225° |
| 2026-04-16 21:39 | 50.03485 | 8.52917 | 350 ft | 10 kts | 254° |
| 2026-04-16 21:39 | 50.03462 | 8.52833 | 352 ft | 5 kts | 245° |
| 2026-04-16 21:40 | 50.03448 | 8.52786 | 355 ft | 5 kts | 245° |
| 2026-04-16 21:40 | 50.03433 | 8.52733 | 353 ft | 6 kts | 247° |
| 2026-04-16 21:40 | 50.03418 | 8.52675 | 348 ft | 6 kts | 247° |
| 2026-04-16 21:40 | 50.03400 | 8.52618 | 354 ft | 6 kts | 235° |
| 2026-04-16 21:41 | 50.03350 | 8.52589 | 350 ft | 10 kts | 182° |
| 2026-04-16 21:41 | 50.03208 | 8.52595 | 348 ft | 52 kts | 179° |
| 2026-04-16 21:41 | 50.02471 | 8.52601 | 344 ft | 154 kts | 180° |
| 2026-04-16 21:41 | 50.01198 | 8.52606 | 790 ft | 196 kts | 180° |
| 2026-04-16 21:42 | 49.99803 | 8.52618 | 1930 ft | 202 kts | 179° |
| 2026-04-16 21:42 | 49.98423 | 8.52363 | 3101 ft | 205 kts | 197° |
| 2026-04-16 21:42 | 49.97180 | 8.51211 | 4231 ft | 208 kts | 221° |
| 2026-04-16 21:42 | 49.96061 | 8.49668 | 5075 ft | 223 kts | 223° |
| 2026-04-16 21:43 | 49.94907 | 8.47984 | 6080 ft | 228 kts | 224° |
| 2026-04-16 21:43 | 49.93762 | 8.46282 | 7365 ft | 230 kts | 225° |
| 2026-04-16 21:43 | 49.92629 | 8.44564 | 8535 ft | 233 kts | 229° |
| 2026-04-16 21:43 | 49.91758 | 8.42212 | 8951 ft | 268 kts | 256° |
| 2026-04-16 21:44 | 49.91742 | 8.39317 | 9996 ft | 275 kts | 283° |
| 2026-04-16 21:44 | 49.92571 | 8.36591 | 10838 ft | 294 kts | 305° |
| 2026-04-16 21:44 | 49.94173 | 8.34313 | 10994 ft | 335 kts | 327° |
| 2026-04-16 21:44 | 49.96336 | 8.32711 | 11752 ft | 349 kts | 336° |
| 2026-04-16 21:45 | 49.98621 | 8.31300 | 12268 ft | 353 kts | 337° |
| 2026-04-16 21:45 | 50.00887 | 8.29943 | 12639 ft | 355 kts | 337° |
| 2026-04-16 21:45 | 50.03211 | 8.28495 | 13582 ft | 353 kts | 334° |
| 2026-04-16 21:45 | 50.05396 | 8.26837 | 14626 ft | 356 kts | 329° |
| 2026-04-16 21:46 | 50.07524 | 8.24831 | 15557 ft | 359 kts | 324° |
| 2026-04-16 21:46 | 50.09584 | 8.22561 | 16393 ft | 365 kts | 321° |
| 2026-04-16 21:46 | 50.11594 | 8.20116 | 17285 ft | 369 kts | 319° |
| 2026-04-16 21:46 | 50.13607 | 8.17525 | 18194 ft | 373 kts | 318° |
| 2026-04-16 21:47 | 50.15565 | 8.14929 | 19004 ft | 376 kts | 318° |
| 2026-04-16 21:47 | 50.17552 | 8.12255 | 19758 ft | 379 kts | 317° |
| 2026-04-16 21:47 | 50.19553 | 8.09540 | 20506 ft | 382 kts | 317° |
| 2026-04-16 21:47 | 50.21564 | 8.06804 | 21221 ft | 386 kts | 317° |
| 2026-04-16 21:48 | 50.23594 | 8.04036 | 21945 ft | 389 kts | 317° |
| 2026-04-16 21:48 | 50.25638 | 8.01247 | 22682 ft | 392 kts | 317° |
| 2026-04-16 21:48 | 50.27701 | 7.98428 | 23430 ft | 395 kts | 317° |
| 2026-04-16 21:48 | 50.29777 | 7.95589 | 24127 ft | 398 kts | 317° |
| 2026-04-16 21:49 | 50.31867 | 7.92728 | 24796 ft | 401 kts | 317° |
| 2026-04-16 21:49 | 50.33228 | 7.90863 | 25248 ft | 402 kts | 317° |
| 2026-04-16 21:49 | 50.33250 | 7.90833 | 25252 ft | 402 kts | 317° |
| 2026-04-16 21:50 | 50.35135 | 7.88247 | 25874 ft | 404 kts | 317° |